sensor_id;sensor_type;location;lat;lon;timestamp;temperature;humidity
23873;DHT22;42884;50.718;4.630;2023-08-30T00:00:35;13.70;99.90
23873;DHT22;42884;50.718;4.630;2023-08-30T00:03:01;13.60;99.90
23873;DHT22;42884;50.718;4.630;2023-08-30T00:05:27;13.70;99.90
23873;DHT22;42884;50.718;4.630;2023-08-30T00:07:53;13.70;99.90
23873;DHT22;42884;50.718;4.630;2023-08-30T00:10:19;13.70;99.90
23873;DHT22;42884;50.718;4.630;2023-08-30T00:12:44;13.70;99.90
23873;DHT22;42884;50.718;4.630;2023-08-30T00:15:10;13.70;99.90
23873;DHT22;42884;50.718;4.630;2023-08-30T00:17:35;13.80;99.90
23873;DHT22;42884;50.718;4.630;2023-08-30T00:20:01;13.80;99.90
23873;DHT22;42884;50.718;4.630;2023-08-30T00:22:28;13.80;99.90
23873;DHT22;42884;50.718;4.630;2023-08-30T00:24:53;13.80;99.90
23873;DHT22;42884;50.718;4.630;2023-08-30T00:27:19;13.80;99.90
23873;DHT22;42884;50.718;4.630;2023-08-30T00:29:46;13.80;99.90
23873;DHT22;42884;50.718;4.630;2023-08-30T00:32:11;13.80;99.90
23873;DHT22;42884;50.718;4.630;2023-08-30T00:34:37;13.80;99.90
23873;DHT22;42884;50.718;4.630;2023-08-30T00:37:02;13.90;99.90
23873;DHT22;42884;50.718;4.630;2023-08-30T00:39:28;13.90;99.90
23873;DHT22;42884;50.718;4.630;2023-08-30T00:41:54;14.00;99.90
23873;DHT22;42884;50.718;4.630;2023-08-30T00:44:19;14.00;99.90
23873;DHT22;42884;50.718;4.630;2023-08-30T00:46:45;14.00;99.90
23873;DHT22;42884;50.718;4.630;2023-08-30T00:49:11;14.00;99.90
23873;DHT22;42884;50.718;4.630;2023-08-30T00:51:36;14.00;99.90
23873;DHT22;42884;50.718;4.630;2023-08-30T00:54:02;14.00;99.90
23873;DHT22;42884;50.718;4.630;2023-08-30T00:56:28;14.00;99.90
23873;DHT22;42884;50.718;4.630;2023-08-30T00:58:54;14.00;99.90
23873;DHT22;42884;50.718;4.630;2023-08-30T01:01:20;14.00;99.90
23873;DHT22;42884;50.718;4.630;2023-08-30T01:03:46;14.00;99.90
23873;DHT22;42884;50.718;4.630;2023-08-30T01:06:11;14.00;99.90
23873;DHT22;42884;50.718;4.630;2023-08-30T01:08:38;14.10;99.90
23873;DHT22;42884;50.718;4.630;2023-08-30T01:13:33;14.10;99.90
23873;DHT22;42884;50.718;4.630;2023-08-30T01:16:00;14.00;99.90
23873;DHT22;42884;50.718;4.630;2023-08-30T01:18:26;14.10;99.90
23873;DHT22;42884;50.718;4.630;2023-08-30T01:20:52;14.00;99.90
23873;DHT22;42884;50.718;4.630;2023-08-30T01:28:37;14.10;99.90
23873;DHT22;42884;50.718;4.630;2023-08-30T01:31:03;14.10;99.90
23873;DHT22;42884;50.718;4.630;2023-08-30T01:33:29;14.20;99.90
23873;DHT22;42884;50.718;4.630;2023-08-30T01:35:57;14.20;99.90
23873;DHT22;42884;50.718;4.630;2023-08-30T01:38:23;14.30;99.90
23873;DHT22;42884;50.718;4.630;2023-08-30T01:40:50;14.30;99.90
23873;DHT22;42884;50.718;4.630;2023-08-30T01:43:17;14.30;99.90
23873;DHT22;42884;50.718;4.630;2023-08-30T01:45:43;14.30;99.90
23873;DHT22;42884;50.718;4.630;2023-08-30T01:48:10;14.30;99.90
23873;DHT22;42884;50.718;4.630;2023-08-30T01:50:36;14.40;99.90
23873;DHT22;42884;50.718;4.630;2023-08-30T01:53:02;14.30;99.90
23873;DHT22;42884;50.718;4.630;2023-08-30T01:55:28;14.40;99.90
23873;DHT22;42884;50.718;4.630;2023-08-30T01:57:55;14.50;99.90
23873;DHT22;42884;50.718;4.630;2023-08-30T02:00:20;14.40;99.90
23873;DHT22;42884;50.718;4.630;2023-08-30T02:02:46;14.40;99.90
23873;DHT22;42884;50.718;4.630;2023-08-30T02:05:12;14.50;99.90
23873;DHT22;42884;50.718;4.630;2023-08-30T02:07:40;14.50;99.90
23873;DHT22;42884;50.718;4.630;2023-08-30T02:10:10;14.50;99.90
23873;DHT22;42884;50.718;4.630;2023-08-30T02:12:47;14.50;99.90
23873;DHT22;42884;50.718;4.630;2023-08-30T02:15:13;14.50;99.90
23873;DHT22;42884;50.718;4.630;2023-08-30T02:17:38;14.50;99.90
23873;DHT22;42884;50.718;4.630;2023-08-30T02:20:05;14.50;99.90
23873;DHT22;42884;50.718;4.630;2023-08-30T02:22:31;14.50;99.90
23873;DHT22;42884;50.718;4.630;2023-08-30T02:24:57;14.60;99.90
23873;DHT22;42884;50.718;4.630;2023-08-30T02:27:23;14.50;99.90
23873;DHT22;42884;50.718;4.630;2023-08-30T02:29:48;14.60;99.90
23873;DHT22;42884;50.718;4.630;2023-08-30T02:32:14;14.60;99.90
23873;DHT22;42884;50.718;4.630;2023-08-30T02:34:42;14.70;99.90
23873;DHT22;42884;50.718;4.630;2023-08-30T02:37:07;14.70;99.90
23873;DHT22;42884;50.718;4.630;2023-08-30T02:39:33;14.70;99.90
23873;DHT22;42884;50.718;4.630;2023-08-30T02:41:58;14.70;99.90
23873;DHT22;42884;50.718;4.630;2023-08-30T02:44:24;14.70;99.90
23873;DHT22;42884;50.718;4.630;2023-08-30T02:46:49;14.70;99.90
23873;DHT22;42884;50.718;4.630;2023-08-30T02:49:15;14.70;99.90
23873;DHT22;42884;50.718;4.630;2023-08-30T02:51:41;14.80;99.90
23873;DHT22;42884;50.718;4.630;2023-08-30T02:54:06;14.80;99.90
23873;DHT22;42884;50.718;4.630;2023-08-30T02:56:32;14.80;99.90
23873;DHT22;42884;50.718;4.630;2023-08-30T02:58:57;14.90;99.90
23873;DHT22;42884;50.718;4.630;2023-08-30T03:01:23;14.80;99.90
23873;DHT22;42884;50.718;4.630;2023-08-30T03:03:48;14.90;99.90
23873;DHT22;42884;50.718;4.630;2023-08-30T03:06:14;14.90;99.90
23873;DHT22;42884;50.718;4.630;2023-08-30T03:08:39;14.90;99.90
23873;DHT22;42884;50.718;4.630;2023-08-30T03:11:12;14.90;99.90
23873;DHT22;42884;50.718;4.630;2023-08-30T03:13:38;14.90;99.90
23873;DHT22;42884;50.718;4.630;2023-08-30T03:16:13;14.90;99.90
23873;DHT22;42884;50.718;4.630;2023-08-30T03:18:39;14.90;99.90
23873;DHT22;42884;50.718;4.630;2023-08-30T03:21:05;15.00;99.90
23873;DHT22;42884;50.718;4.630;2023-08-30T03:23:31;15.00;99.90
23873;DHT22;42884;50.718;4.630;2023-08-30T03:25:57;15.00;99.90
23873;DHT22;42884;50.718;4.630;2023-08-30T03:28:23;15.10;99.90
23873;DHT22;42884;50.718;4.630;2023-08-30T03:30:49;15.10;99.90
23873;DHT22;42884;50.718;4.630;2023-08-30T03:33:14;15.10;99.90
23873;DHT22;42884;50.718;4.630;2023-08-30T03:35:40;15.10;99.90
23873;DHT22;42884;50.718;4.630;2023-08-30T03:38:05;15.10;99.90
23873;DHT22;42884;50.718;4.630;2023-08-30T03:40:31;15.10;99.90
23873;DHT22;42884;50.718;4.630;2023-08-30T03:42:57;15.10;99.90
23873;DHT22;42884;50.718;4.630;2023-08-30T03:45:22;15.10;99.90
23873;DHT22;42884;50.718;4.630;2023-08-30T03:47:48;15.10;99.90
23873;DHT22;42884;50.718;4.630;2023-08-30T03:50:13;15.10;99.90
23873;DHT22;42884;50.718;4.630;2023-08-30T03:52:39;15.10;99.90
23873;DHT22;42884;50.718;4.630;2023-08-30T03:55:04;15.10;99.90
23873;DHT22;42884;50.718;4.630;2023-08-30T03:57:30;15.20;99.90
23873;DHT22;42884;50.718;4.630;2023-08-30T03:59:56;15.20;99.90
23873;DHT22;42884;50.718;4.630;2023-08-30T04:02:21;15.20;99.90
23873;DHT22;42884;50.718;4.630;2023-08-30T04:04:47;15.20;99.90
23873;DHT22;42884;50.718;4.630;2023-08-30T04:07:15;15.20;99.90
23873;DHT22;42884;50.718;4.630;2023-08-30T04:09:41;15.30;99.90
23873;DHT22;42884;50.718;4.630;2023-08-30T04:12:07;15.30;99.90
23873;DHT22;42884;50.718;4.630;2023-08-30T04:14:32;15.30;99.90
23873;DHT22;42884;50.718;4.630;2023-08-30T04:16:58;15.30;99.90
23873;DHT22;42884;50.718;4.630;2023-08-30T04:19:23;15.30;99.90
23873;DHT22;42884;50.718;4.630;2023-08-30T04:21:49;15.30;99.90
23873;DHT22;42884;50.718;4.630;2023-08-30T04:24:15;15.20;99.90
23873;DHT22;42884;50.718;4.630;2023-08-30T04:26:41;15.20;99.90
23873;DHT22;42884;50.718;4.630;2023-08-30T04:29:06;15.30;99.90
23873;DHT22;42884;50.718;4.630;2023-08-30T04:31:32;15.20;99.90
23873;DHT22;42884;50.718;4.630;2023-08-30T04:33:57;15.20;99.90
23873;DHT22;42884;50.718;4.630;2023-08-30T04:36:23;15.30;99.90
23873;DHT22;42884;50.718;4.630;2023-08-30T04:38:49;15.30;99.90
23873;DHT22;42884;50.718;4.630;2023-08-30T04:41:14;15.10;99.90
23873;DHT22;42884;50.718;4.630;2023-08-30T04:43:40;15.10;99.90
23873;DHT22;42884;50.718;4.630;2023-08-30T04:46:05;15.20;99.90
23873;DHT22;42884;50.718;4.630;2023-08-30T04:48:31;15.10;99.90
23873;DHT22;42884;50.718;4.630;2023-08-30T04:51:03;15.20;99.90
23873;DHT22;42884;50.718;4.630;2023-08-30T04:53:29;15.20;99.90
23873;DHT22;42884;50.718;4.630;2023-08-30T04:55:55;15.20;99.90
23873;DHT22;42884;50.718;4.630;2023-08-30T04:58:21;15.20;99.90
23873;DHT22;42884;50.718;4.630;2023-08-30T05:00:46;15.00;99.90
23873;DHT22;42884;50.718;4.630;2023-08-30T05:03:12;15.10;99.90
23873;DHT22;42884;50.718;4.630;2023-08-30T05:05:37;15.00;99.90
23873;DHT22;42884;50.718;4.630;2023-08-30T05:08:03;15.00;99.90
23873;DHT22;42884;50.718;4.630;2023-08-30T05:10:29;14.90;99.90
23873;DHT22;42884;50.718;4.630;2023-08-30T05:12:55;15.00;99.90
23873;DHT22;42884;50.718;4.630;2023-08-30T05:15:20;14.90;99.90
23873;DHT22;42884;50.718;4.630;2023-08-30T05:17:46;14.90;99.90
23873;DHT22;42884;50.718;4.630;2023-08-30T05:20:12;14.90;99.90
23873;DHT22;42884;50.718;4.630;2023-08-30T05:22:38;15.00;99.90
23873;DHT22;42884;50.718;4.630;2023-08-30T05:25:03;14.90;99.90
23873;DHT22;42884;50.718;4.630;2023-08-30T05:27:29;14.80;99.90
23873;DHT22;42884;50.718;4.630;2023-08-30T05:29:55;14.90;99.90
23873;DHT22;42884;50.718;4.630;2023-08-30T05:32:21;14.90;99.90
23873;DHT22;42884;50.718;4.630;2023-08-30T05:34:47;14.90;99.90
23873;DHT22;42884;50.718;4.630;2023-08-30T05:37:12;15.00;99.90
23873;DHT22;42884;50.718;4.630;2023-08-30T05:39:38;15.00;99.90
23873;DHT22;42884;50.718;4.630;2023-08-30T05:42:04;14.90;99.90
23873;DHT22;42884;50.718;4.630;2023-08-30T05:44:29;14.90;99.90
23873;DHT22;42884;50.718;4.630;2023-08-30T05:46:55;14.90;99.90
23873;DHT22;42884;50.718;4.630;2023-08-30T05:49:21;14.90;99.90
23873;DHT22;42884;50.718;4.630;2023-08-30T05:51:46;15.00;99.90
23873;DHT22;42884;50.718;4.630;2023-08-30T05:54:13;15.10;99.90
23873;DHT22;42884;50.718;4.630;2023-08-30T05:56:38;15.10;99.90
23873;DHT22;42884;50.718;4.630;2023-08-30T05:59:04;15.00;99.90
23873;DHT22;42884;50.718;4.630;2023-08-30T06:01:29;14.90;99.90
23873;DHT22;42884;50.718;4.630;2023-08-30T06:03:55;14.90;99.90
23873;DHT22;42884;50.718;4.630;2023-08-30T06:06:21;14.90;99.90
23873;DHT22;42884;50.718;4.630;2023-08-30T06:08:47;14.90;99.90
23873;DHT22;42884;50.718;4.630;2023-08-30T06:11:12;15.00;99.90
23873;DHT22;42884;50.718;4.630;2023-08-30T06:13:39;15.00;99.90
23873;DHT22;42884;50.718;4.630;2023-08-30T06:16:04;14.90;99.90
23873;DHT22;42884;50.718;4.630;2023-08-30T06:18:30;14.90;99.90
23873;DHT22;42884;50.718;4.630;2023-08-30T06:20:57;14.90;99.90
23873;DHT22;42884;50.718;4.630;2023-08-30T06:23:23;14.90;99.90
23873;DHT22;42884;50.718;4.630;2023-08-30T06:25:55;15.00;99.90
23873;DHT22;42884;50.718;4.630;2023-08-30T06:28:21;15.00;99.90
23873;DHT22;42884;50.718;4.630;2023-08-30T06:30:47;15.00;99.90
23873;DHT22;42884;50.718;4.630;2023-08-30T06:33:13;15.10;99.90
23873;DHT22;42884;50.718;4.630;2023-08-30T06:35:38;15.20;99.90
23873;DHT22;42884;50.718;4.630;2023-08-30T06:38:04;15.20;99.90
23873;DHT22;42884;50.718;4.630;2023-08-30T06:40:30;15.20;99.90
23873;DHT22;42884;50.718;4.630;2023-08-30T06:42:56;15.20;99.90
23873;DHT22;42884;50.718;4.630;2023-08-30T06:45:22;15.20;99.90
23873;DHT22;42884;50.718;4.630;2023-08-30T06:47:48;15.30;99.90
23873;DHT22;42884;50.718;4.630;2023-08-30T06:50:14;15.20;99.90
23873;DHT22;42884;50.718;4.630;2023-08-30T06:52:40;15.30;99.90
23873;DHT22;42884;50.718;4.630;2023-08-30T06:55:05;15.40;99.90
23873;DHT22;42884;50.718;4.630;2023-08-30T06:57:31;15.40;99.90
23873;DHT22;42884;50.718;4.630;2023-08-30T06:59:57;15.60;99.90
23873;DHT22;42884;50.718;4.630;2023-08-30T07:02:25;15.70;99.90
23873;DHT22;42884;50.718;4.630;2023-08-30T07:04:50;15.70;99.90
23873;DHT22;42884;50.718;4.630;2023-08-30T07:07:16;15.80;99.90
23873;DHT22;42884;50.718;4.630;2023-08-30T07:09:42;15.70;99.90
23873;DHT22;42884;50.718;4.630;2023-08-30T07:12:07;15.60;99.90
23873;DHT22;42884;50.718;4.630;2023-08-30T07:14:33;15.70;99.90
23873;DHT22;42884;50.718;4.630;2023-08-30T07:16:59;15.70;99.90
23873;DHT22;42884;50.718;4.630;2023-08-30T07:19:25;15.80;99.90
23873;DHT22;42884;50.718;4.630;2023-08-30T07:21:50;15.80;99.90
23873;DHT22;42884;50.718;4.630;2023-08-30T07:24:16;15.80;99.90
23873;DHT22;42884;50.718;4.630;2023-08-30T07:26:42;15.80;99.90
23873;DHT22;42884;50.718;4.630;2023-08-30T07:29:08;15.90;99.90
23873;DHT22;42884;50.718;4.630;2023-08-30T07:31:34;15.70;99.90
23873;DHT22;42884;50.718;4.630;2023-08-30T07:33:59;15.70;99.90
23873;DHT22;42884;50.718;4.630;2023-08-30T07:36:26;15.70;99.90
23873;DHT22;42884;50.718;4.630;2023-08-30T07:38:51;15.70;99.90
23873;DHT22;42884;50.718;4.630;2023-08-30T07:41:17;15.70;99.90
23873;DHT22;42884;50.718;4.630;2023-08-30T07:43:43;15.70;99.90
23873;DHT22;42884;50.718;4.630;2023-08-30T07:46:08;15.60;99.90
23873;DHT22;42884;50.718;4.630;2023-08-30T07:48:34;15.50;99.90
23873;DHT22;42884;50.718;4.630;2023-08-30T07:50:59;15.60;99.90
23873;DHT22;42884;50.718;4.630;2023-08-30T07:53:25;15.60;99.90
23873;DHT22;42884;50.718;4.630;2023-08-30T07:55:50;15.60;99.90
23873;DHT22;42884;50.718;4.630;2023-08-30T07:58:16;15.70;99.90
23873;DHT22;42884;50.718;4.630;2023-08-30T08:00:42;15.80;99.90
23873;DHT22;42884;50.718;4.630;2023-08-30T08:03:08;15.70;99.90
23873;DHT22;42884;50.718;4.630;2023-08-30T08:05:35;15.70;99.90
23873;DHT22;42884;50.718;4.630;2023-08-30T08:08:01;15.80;99.90
23873;DHT22;42884;50.718;4.630;2023-08-30T08:10:31;15.90;99.90
23873;DHT22;42884;50.718;4.630;2023-08-30T08:12:56;15.70;99.90
23873;DHT22;42884;50.718;4.630;2023-08-30T08:15:22;15.80;99.90
23873;DHT22;42884;50.718;4.630;2023-08-30T08:17:47;15.60;99.90
23873;DHT22;42884;50.718;4.630;2023-08-30T08:20:14;15.70;99.90
23873;DHT22;42884;50.718;4.630;2023-08-30T08:22:40;15.80;99.90
23873;DHT22;42884;50.718;4.630;2023-08-30T08:25:06;15.80;99.90
23873;DHT22;42884;50.718;4.630;2023-08-30T08:27:35;15.80;99.90
23873;DHT22;42884;50.718;4.630;2023-08-30T08:30:01;15.90;99.90
23873;DHT22;42884;50.718;4.630;2023-08-30T08:32:29;16.10;99.90
23873;DHT22;42884;50.718;4.630;2023-08-30T08:34:56;16.00;99.90
23873;DHT22;42884;50.718;4.630;2023-08-30T08:37:21;16.10;99.90
23873;DHT22;42884;50.718;4.630;2023-08-30T08:39:47;16.10;99.90
23873;DHT22;42884;50.718;4.630;2023-08-30T08:42:19;16.00;99.90
23873;DHT22;42884;50.718;4.630;2023-08-30T08:44:51;16.00;99.90
23873;DHT22;42884;50.718;4.630;2023-08-30T08:47:19;16.10;99.90
23873;DHT22;42884;50.718;4.630;2023-08-30T08:49:45;16.20;99.90
23873;DHT22;42884;50.718;4.630;2023-08-30T08:52:11;16.20;99.90
23873;DHT22;42884;50.718;4.630;2023-08-30T08:54:38;16.30;99.90
23873;DHT22;42884;50.718;4.630;2023-08-30T08:57:05;16.40;99.90
23873;DHT22;42884;50.718;4.630;2023-08-30T08:59:31;16.50;99.90
23873;DHT22;42884;50.718;4.630;2023-08-30T09:01:57;16.40;99.90
23873;DHT22;42884;50.718;4.630;2023-08-30T09:04:22;16.50;99.90
23873;DHT22;42884;50.718;4.630;2023-08-30T09:06:49;16.60;99.90
23873;DHT22;42884;50.718;4.630;2023-08-30T09:09:15;16.60;99.90
23873;DHT22;42884;50.718;4.630;2023-08-30T09:11:41;16.60;99.90
23873;DHT22;42884;50.718;4.630;2023-08-30T09:14:08;16.40;99.90
23873;DHT22;42884;50.718;4.630;2023-08-30T09:16:34;16.50;99.90
23873;DHT22;42884;50.718;4.630;2023-08-30T09:19:00;16.40;99.90
23873;DHT22;42884;50.718;4.630;2023-08-30T09:21:26;16.50;99.90
23873;DHT22;42884;50.718;4.630;2023-08-30T09:23:58;16.70;99.90
23873;DHT22;42884;50.718;4.630;2023-08-30T09:26:24;16.60;99.90
23873;DHT22;42884;50.718;4.630;2023-08-30T09:28:50;16.80;99.90
23873;DHT22;42884;50.718;4.630;2023-08-30T09:31:18;16.90;99.90
23873;DHT22;42884;50.718;4.630;2023-08-30T09:33:47;16.90;99.90
23873;DHT22;42884;50.718;4.630;2023-08-30T09:36:16;17.00;99.90
23873;DHT22;42884;50.718;4.630;2023-08-30T09:38:47;16.90;99.90
23873;DHT22;42884;50.718;4.630;2023-08-30T09:41:13;16.80;99.90
23873;DHT22;42884;50.718;4.630;2023-08-30T09:43:42;16.90;99.90
23873;DHT22;42884;50.718;4.630;2023-08-30T09:46:07;16.80;99.90
23873;DHT22;42884;50.718;4.630;2023-08-30T09:48:33;16.90;99.90
23873;DHT22;42884;50.718;4.630;2023-08-30T09:50:59;16.80;99.90
23873;DHT22;42884;50.718;4.630;2023-08-30T09:53:27;16.70;99.90
23873;DHT22;42884;50.718;4.630;2023-08-30T09:55:55;16.90;99.90
23873;DHT22;42884;50.718;4.630;2023-08-30T09:58:21;16.90;99.90
23873;DHT22;42884;50.718;4.630;2023-08-30T10:00:46;17.10;99.90
23873;DHT22;42884;50.718;4.630;2023-08-30T10:03:12;17.20;99.90
23873;DHT22;42884;50.718;4.630;2023-08-30T10:05:38;17.30;99.90
23873;DHT22;42884;50.718;4.630;2023-08-30T10:08:04;17.40;99.90
23873;DHT22;42884;50.718;4.630;2023-08-30T10:10:32;17.40;99.90
23873;DHT22;42884;50.718;4.630;2023-08-30T10:12:57;17.50;99.90
23873;DHT22;42884;50.718;4.630;2023-08-30T10:15:23;17.80;99.90
23873;DHT22;42884;50.718;4.630;2023-08-30T10:17:52;17.70;99.90
23873;DHT22;42884;50.718;4.630;2023-08-30T10:20:19;18.00;99.90
23873;DHT22;42884;50.718;4.630;2023-08-30T10:22:44;17.90;99.90
23873;DHT22;42884;50.718;4.630;2023-08-30T10:25:15;18.00;99.90
23873;DHT22;42884;50.718;4.630;2023-08-30T10:27:43;18.10;99.90
23873;DHT22;42884;50.718;4.630;2023-08-30T10:30:10;18.00;99.90
23873;DHT22;42884;50.718;4.630;2023-08-30T10:32:40;17.90;99.90
23873;DHT22;42884;50.718;4.630;2023-08-30T10:35:05;18.00;99.90
23873;DHT22;42884;50.718;4.630;2023-08-30T10:37:31;18.10;99.90
23873;DHT22;42884;50.718;4.630;2023-08-30T10:40:00;18.20;99.90
23873;DHT22;42884;50.718;4.630;2023-08-30T10:42:29;18.10;99.90
23873;DHT22;42884;50.718;4.630;2023-08-30T10:45:02;18.10;99.90
23873;DHT22;42884;50.718;4.630;2023-08-30T10:47:31;18.20;99.90
23873;DHT22;42884;50.718;4.630;2023-08-30T10:49:58;18.30;99.90
23873;DHT22;42884;50.718;4.630;2023-08-30T10:52:25;18.30;99.90
23873;DHT22;42884;50.718;4.630;2023-08-30T10:54:51;18.40;99.90
23873;DHT22;42884;50.718;4.630;2023-08-30T10:57:21;18.40;99.90
23873;DHT22;42884;50.718;4.630;2023-08-30T11:02:30;18.50;99.90
23873;DHT22;42884;50.718;4.630;2023-08-30T11:04:57;18.60;99.90
23873;DHT22;42884;50.718;4.630;2023-08-30T11:07:24;18.70;99.90
23873;DHT22;42884;50.718;4.630;2023-08-30T11:09:51;18.80;99.90
23873;DHT22;42884;50.718;4.630;2023-08-30T11:12:17;18.90;99.90
23873;DHT22;42884;50.718;4.630;2023-08-30T11:14:43;19.00;99.90
23873;DHT22;42884;50.718;4.630;2023-08-30T11:17:11;19.10;99.90
23873;DHT22;42884;50.718;4.630;2023-08-30T11:19:37;19.30;99.90
23873;DHT22;42884;50.718;4.630;2023-08-30T11:22:03;19.10;99.90
23873;DHT22;42884;50.718;4.630;2023-08-30T11:24:28;19.20;99.90
23873;DHT22;42884;50.718;4.630;2023-08-30T11:26:54;19.30;99.90
23873;DHT22;42884;50.718;4.630;2023-08-30T11:29:20;19.10;99.90
23873;DHT22;42884;50.718;4.630;2023-08-30T11:31:45;19.20;99.90
23873;DHT22;42884;50.718;4.630;2023-08-30T11:34:12;19.20;99.90
23873;DHT22;42884;50.718;4.630;2023-08-30T11:36:38;19.40;99.90
23873;DHT22;42884;50.718;4.630;2023-08-30T11:39:04;19.40;99.90
23873;DHT22;42884;50.718;4.630;2023-08-30T11:41:29;19.20;99.90
23873;DHT22;42884;50.718;4.630;2023-08-30T11:43:56;19.00;99.90
23873;DHT22;42884;50.718;4.630;2023-08-30T11:46:23;19.10;99.90
23873;DHT22;42884;50.718;4.630;2023-08-30T11:48:49;19.00;99.90
23873;DHT22;42884;50.718;4.630;2023-08-30T11:51:16;19.20;99.90
23873;DHT22;42884;50.718;4.630;2023-08-30T11:53:42;19.20;99.90
23873;DHT22;42884;50.718;4.630;2023-08-30T11:56:07;19.40;99.90
23873;DHT22;42884;50.718;4.630;2023-08-30T11:58:37;19.40;99.90
23873;DHT22;42884;50.718;4.630;2023-08-30T12:01:03;19.40;99.90
23873;DHT22;42884;50.718;4.630;2023-08-30T12:03:29;19.50;99.90
23873;DHT22;42884;50.718;4.630;2023-08-30T12:05:55;19.60;99.90
23873;DHT22;42884;50.718;4.630;2023-08-30T12:08:24;19.60;99.90
23873;DHT22;42884;50.718;4.630;2023-08-30T12:10:49;19.40;99.90
23873;DHT22;42884;50.718;4.630;2023-08-30T12:15:50;19.50;99.90
23873;DHT22;42884;50.718;4.630;2023-08-30T12:18:16;19.70;99.90
23873;DHT22;42884;50.718;4.630;2023-08-30T12:20:52;19.70;99.90
23873;DHT22;42884;50.718;4.630;2023-08-30T12:23:22;19.80;99.90
23873;DHT22;42884;50.718;4.630;2023-08-30T12:25:58;19.80;99.90
23873;DHT22;42884;50.718;4.630;2023-08-30T12:28:24;19.90;99.90
23873;DHT22;42884;50.718;4.630;2023-08-30T12:30:50;19.80;99.90
23873;DHT22;42884;50.718;4.630;2023-08-30T12:33:16;19.70;99.90
23873;DHT22;42884;50.718;4.630;2023-08-30T12:35:41;19.60;99.90
23873;DHT22;42884;50.718;4.630;2023-08-30T12:38:07;19.60;99.90
23873;DHT22;42884;50.718;4.630;2023-08-30T12:40:35;19.40;99.90
23873;DHT22;42884;50.718;4.630;2023-08-30T12:43:00;19.50;99.90
23873;DHT22;42884;50.718;4.630;2023-08-30T12:45:26;19.40;99.90
23873;DHT22;42884;50.718;4.630;2023-08-30T12:47:51;19.60;99.90
23873;DHT22;42884;50.718;4.630;2023-08-30T12:50:17;19.60;99.90
23873;DHT22;42884;50.718;4.630;2023-08-30T12:52:43;19.90;99.90
23873;DHT22;42884;50.718;4.630;2023-08-30T12:55:08;20.30;99.90
23873;DHT22;42884;50.718;4.630;2023-08-30T12:57:34;20.50;99.90
23873;DHT22;42884;50.718;4.630;2023-08-30T12:59:59;20.50;99.90
23873;DHT22;42884;50.718;4.630;2023-08-30T13:02:25;20.60;99.90
23873;DHT22;42884;50.718;4.630;2023-08-30T13:04:51;20.80;99.90
23873;DHT22;42884;50.718;4.630;2023-08-30T13:07:16;21.00;99.90
23873;DHT22;42884;50.718;4.630;2023-08-30T13:09:42;21.00;99.90
23873;DHT22;42884;50.718;4.630;2023-08-30T13:12:08;21.00;99.90
23873;DHT22;42884;50.718;4.630;2023-08-30T13:14:33;21.10;99.90
23873;DHT22;42884;50.718;4.630;2023-08-30T13:16:59;21.30;99.90
23873;DHT22;42884;50.718;4.630;2023-08-30T13:19:25;21.40;99.90
23873;DHT22;42884;50.718;4.630;2023-08-30T13:21:50;21.70;99.90
23873;DHT22;42884;50.718;4.630;2023-08-30T13:24:16;22.10;99.90
23873;DHT22;42884;50.718;4.630;2023-08-30T13:26:41;22.30;99.90
23873;DHT22;42884;50.718;4.630;2023-08-30T13:29:07;22.40;99.90
23873;DHT22;42884;50.718;4.630;2023-08-30T13:31:33;22.60;99.90
23873;DHT22;42884;50.718;4.630;2023-08-30T13:33:58;23.00;99.90
23873;DHT22;42884;50.718;4.630;2023-08-30T13:36:24;23.00;99.90
23873;DHT22;42884;50.718;4.630;2023-08-30T13:38:50;23.40;99.90
23873;DHT22;42884;50.718;4.630;2023-08-30T13:41:15;23.70;99.90
23873;DHT22;42884;50.718;4.630;2023-08-30T13:43:41;23.70;99.90
23873;DHT22;42884;50.718;4.630;2023-08-30T13:46:06;23.50;99.90
23873;DHT22;42884;50.718;4.630;2023-08-30T13:48:32;23.30;99.90
23873;DHT22;42884;50.718;4.630;2023-08-30T13:50:58;23.20;99.90
23873;DHT22;42884;50.718;4.630;2023-08-30T13:53:23;23.40;99.90
23873;DHT22;42884;50.718;4.630;2023-08-30T13:55:50;23.50;99.90
23873;DHT22;42884;50.718;4.630;2023-08-30T13:58:15;23.30;99.90
23873;DHT22;42884;50.718;4.630;2023-08-30T14:00:41;23.10;99.90
23873;DHT22;42884;50.718;4.630;2023-08-30T14:03:06;23.50;99.90
23873;DHT22;42884;50.718;4.630;2023-08-30T14:05:33;24.00;99.90
23873;DHT22;42884;50.718;4.630;2023-08-30T14:07:59;24.20;99.90
23873;DHT22;42884;50.718;4.630;2023-08-30T14:10:24;24.00;99.90
23873;DHT22;42884;50.718;4.630;2023-08-30T14:12:50;24.20;99.90
23873;DHT22;42884;50.718;4.630;2023-08-30T14:15:15;24.20;99.90
23873;DHT22;42884;50.718;4.630;2023-08-30T14:17:43;24.40;99.90
23873;DHT22;42884;50.718;4.630;2023-08-30T14:20:09;24.40;99.90
23873;DHT22;42884;50.718;4.630;2023-08-30T14:22:34;24.50;99.90
23873;DHT22;42884;50.718;4.630;2023-08-30T14:25:01;24.10;99.90
23873;DHT22;42884;50.718;4.630;2023-08-30T14:27:27;24.10;99.90
23873;DHT22;42884;50.718;4.630;2023-08-30T14:29:53;24.00;99.90
23873;DHT22;42884;50.718;4.630;2023-08-30T14:32:18;23.70;99.90
23873;DHT22;42884;50.718;4.630;2023-08-30T14:34:44;23.30;99.90
23873;DHT22;42884;50.718;4.630;2023-08-30T14:37:09;23.00;99.90
23873;DHT22;42884;50.718;4.630;2023-08-30T14:39:36;22.80;99.90
23873;DHT22;42884;50.718;4.630;2023-08-30T14:42:02;22.50;99.90
23873;DHT22;42884;50.718;4.630;2023-08-30T14:44:27;22.30;99.90
23873;DHT22;42884;50.718;4.630;2023-08-30T14:46:53;22.20;99.90
23873;DHT22;42884;50.718;4.630;2023-08-30T14:49:19;21.80;99.90
23873;DHT22;42884;50.718;4.630;2023-08-30T14:51:44;21.70;99.90
23873;DHT22;42884;50.718;4.630;2023-08-30T14:54:10;21.70;99.90
23873;DHT22;42884;50.718;4.630;2023-08-30T14:56:35;21.70;99.90
23873;DHT22;42884;50.718;4.630;2023-08-30T14:59:01;21.50;99.90
23873;DHT22;42884;50.718;4.630;2023-08-30T15:01:27;21.50;99.90
23873;DHT22;42884;50.718;4.630;2023-08-30T15:03:52;21.40;99.90
23873;DHT22;42884;50.718;4.630;2023-08-30T15:06:18;21.00;99.90
23873;DHT22;42884;50.718;4.630;2023-08-30T15:08:44;20.90;99.90
23873;DHT22;42884;50.718;4.630;2023-08-30T15:11:09;20.60;99.90
23873;DHT22;42884;50.718;4.630;2023-08-30T15:13:35;20.20;99.90
23873;DHT22;42884;50.718;4.630;2023-08-30T15:16:03;20.10;99.90
23873;DHT22;42884;50.718;4.630;2023-08-30T15:18:29;19.90;99.90
23873;DHT22;42884;50.718;4.630;2023-08-30T15:20:54;20.00;99.90
23873;DHT22;42884;50.718;4.630;2023-08-30T15:23:21;20.00;99.90
23873;DHT22;42884;50.718;4.630;2023-08-30T15:25:47;20.10;99.90
23873;DHT22;42884;50.718;4.630;2023-08-30T15:28:13;20.20;99.90
23873;DHT22;42884;50.718;4.630;2023-08-30T15:30:43;20.40;99.90
23873;DHT22;42884;50.718;4.630;2023-08-30T15:33:09;20.60;99.90
23873;DHT22;42884;50.718;4.630;2023-08-30T15:35:38;20.50;99.90